Oglasa — ITMG — position and weather

sailwx.info

Track history (hours):
 
Tides and Currents Weather Stations Pressure Air Temp Water Temp Dewpoint Dewpoint Depression Visibility Wind Speed Wind Dir Waves Ship Positions

Oglasa

Last reported at 2016-May-26 15:32 UTC. Time now 2016-May-26 16:30 UTC.
Position N 42°49' E 010°19'.

Length 91 m; draft 3.8 m.

Type: Ship. MMSI: 247046800.

Date/timePositionNaut miles runAvg speedWind from/ knotsBaromVisibWave heightAir tempDewpointWater temp
2016-May-26 15:32N 42°49' E 010°19'1212.8
2016-May-26 14:33N 42°56' E 010°33'0 0.3
2016-May-26 13:34N 42°56' E 010°33'6 5.7
2016-May-26 12:33N 42°53' E 010°26'6 5.3
2016-May-26 11:25N 42°49' E 010°20'1 0.2
2016-May-26 08:25N 42°49' E 010°21'5 0.3
2016-May-25 16:34N 42°53' E 010°25'6 5.9
2016-May-25 15:32N 42°49' E 010°19'3 0.1
2016-May-24 09:23N 42°51' E 010°22'3 3.7
2016-May-24 08:29N 42°49' E 010°20'7 0.2
2016-May-22 17:33N 42°53' E 010°27'7 6.3
2016-May-22 16:28N 42°49' E 010°19'6 3.2
2016-May-22 14:34N 42°53' E 010°26'5 3.8
2016-May-22 13:22N 42°50' E 010°21'5 2.6
2016-May-22 11:34N 42°53' E 010°26'6 6.1
2016-May-22 10:32N 42°49' E 010°19'12 8.3
2016-May-22 09:03N 42°56' E 010°33'713.3
2016-May-22 08:34N 42°53' E 010°25'6 5.9
2016-May-22 07:34N 42°49' E 010°19'1212.1
2016-May-22 06:33N 42°56' E 010°33'0 0.0
2016-May-22 00:30N 42°56' E 010°33'0 0.0
2016-May-21 18:18N 42°56' E 010°33'5 7.1
2016-May-21 17:34N 42°53' E 010°27'7 6.5
2016-May-21 16:30N 42°49' E 010°19'6 3.2
2016-May-21 14:33N 42°53' E 010°26'6 6.2
2016-May-21 13:33N 42°49' E 010°19'7 3.5
2016-May-21 11:34N 42°53' E 010°27'7 6.3
2016-May-21 10:27N 42°49' E 010°20'7 3.5
2016-May-21 08:33N 42°53' E 010°26'7 6.5
2016-May-21 07:33N 42°49' E 010°19'6 0.5
2016-May-20 17:34N 42°53' E 010°26'7 6.4
2016-May-20 16:32N 42°49' E 010°19'6 3.2
2016-May-20 14:34N 42°53' E 010°26'6 5.3
2016-May-20 13:30N 42°49' E 010°20'6 3.0
2016-May-20 11:34N 42°53' E 010°26'7 6.2
2016-May-20 10:30N 42°49' E 010°19'6 3.3
2016-May-20 08:34N 42°53' E 010°26'6 5.2
2016-May-20 07:25N 42°49' E 010°20'0 0.0
2016-May-19 11:27N 42°49' E 010°20'1 0.0
2016-May-18 11:29N 42°49' E 010°21'6 3.2
2016-May-18 09:34N 42°53' E 010°27'6 4.7
2016-May-18 08:23N 42°49' E 010°21'3 0.2
2016-May-17 16:25N 42°52' E 010°24'4 5.0
2016-May-17 15:30N 42°49' E 010°19'0 0.0
2016-May-17 11:27N 42°49' E 010°20'0 0.0
2016-May-16 15:32N 42°49' E 010°20'  
Track history (hours):
 
Tides and Currents Weather Stations Pressure Air Temp Water Temp Dewpoint Dewpoint Depression Visibility Wind Speed Wind Dir Waves Ship Positions

Oglasa

Last reported at 2016-May-26 15:32 UTC. Time now 2016-May-26 16:30 UTC.
Position N 42°49' E 010°19'.

Length 91 m; draft 3.8 m.

Type: Ship. MMSI: 247046800.

Date/timePositionNaut miles runAvg speedWind from/ knotsBaromVisibWave heightAir tempDewpointWater temp
2016-May-26 15:32N 42°49' E 010°19'1212.8
2016-May-26 14:33N 42°56' E 010°33'0 0.3
2016-May-26 13:34N 42°56' E 010°33'6 5.7
2016-May-26 12:33N 42°53' E 010°26'6 5.3
2016-May-26 11:25N 42°49' E 010°20'1 0.2
2016-May-26 08:25N 42°49' E 010°21'5 0.3
2016-May-25 16:34N 42°53' E 010°25'6 5.9
2016-May-25 15:32N 42°49' E 010°19'3 0.1
2016-May-24 09:23N 42°51' E 010°22'3 3.7
2016-May-24 08:29N 42°49' E 010°20'7 0.2
2016-May-22 17:33N 42°53' E 010°27'7 6.3
2016-May-22 16:28N 42°49' E 010°19'6 3.2
2016-May-22 14:34N 42°53' E 010°26'5 3.8
2016-May-22 13:22N 42°50' E 010°21'5 2.6
2016-May-22 11:34N 42°53' E 010°26'6 6.1
2016-May-22 10:32N 42°49' E 010°19'12 8.3
2016-May-22 09:03N 42°56' E 010°33'713.3
2016-May-22 08:34N 42°53' E 010°25'6 5.9
2016-May-22 07:34N 42°49' E 010°19'1212.1
2016-May-22 06:33N 42°56' E 010°33'0 0.0
2016-May-22 00:30N 42°56' E 010°33'0 0.0
2016-May-21 18:18N 42°56' E 010°33'5 7.1
2016-May-21 17:34N 42°53' E 010°27'7 6.5
2016-May-21 16:30N 42°49' E 010°19'6 3.2
2016-May-21 14:33N 42°53' E 010°26'6 6.2
2016-May-21 13:33N 42°49' E 010°19'7 3.5
2016-May-21 11:34N 42°53' E 010°27'7 6.3
2016-May-21 10:27N 42°49' E 010°20'7 3.5
2016-May-21 08:33N 42°53' E 010°26'7 6.5
2016-May-21 07:33N 42°49' E 010°19'6 0.5
2016-May-20 17:34N 42°53' E 010°26'7 6.4
2016-May-20 16:32N 42°49' E 010°19'6 3.2
2016-May-20 14:34N 42°53' E 010°26'6 5.3
2016-May-20 13:30N 42°49' E 010°20'6 3.0
2016-May-20 11:34N 42°53' E 010°26'7 6.2
2016-May-20 10:30N 42°49' E 010°19'6 3.3
2016-May-20 08:34N 42°53' E 010°26'6 5.2
2016-May-20 07:25N 42°49' E 010°20'0 0.0
2016-May-19 11:27N 42°49' E 010°20'1 0.0
2016-May-18 11:29N 42°49' E 010°21'6 3.2
2016-May-18 09:34N 42°53' E 010°27'6 4.7
2016-May-18 08:23N 42°49' E 010°21'3 0.2
2016-May-17 16:25N 42°52' E 010°24'4 5.0
2016-May-17 15:30N 42°49' E 010°19'0 0.0
2016-May-17 11:27N 42°49' E 010°20'0 0.0
2016-May-16 15:32N 42°49' E 010°20'  

Dump ship's entire track history